createdAt,value
2023-02-03T00:00:40.548Z,18.07
2023-02-03T00:04:40.487Z,24.6
2023-02-03T00:08:40.556Z,17.5
2023-02-03T00:12:40.467Z,13.03
2023-02-03T00:16:40.710Z,19.63
2023-02-03T00:20:40.510Z,22.87
2023-02-03T00:24:40.638Z,24.97
2023-02-03T00:28:40.853Z,25.77
2023-02-03T00:32:40.649Z,39.5
2023-02-03T00:36:41.987Z,24.27
2023-02-03T00:40:40.932Z,23.43
2023-02-03T00:44:41.168Z,19.47
2023-02-03T00:48:40.482Z,29.27
2023-02-03T00:52:40.527Z,25.97
2023-02-03T00:56:41.229Z,18.1
2023-02-03T01:00:40.637Z,20.73
2023-02-03T01:04:40.545Z,23.2
2023-02-03T01:08:40.581Z,31.1
2023-02-03T01:12:40.641Z,24.83
2023-02-03T01:16:41.287Z,26.73
2023-02-03T01:20:40.498Z,29.43
2023-02-03T01:24:40.662Z,30.2
2023-02-03T01:28:40.868Z,37.07
2023-02-03T01:32:40.764Z,30.6
2023-02-03T01:36:40.551Z,22.27
2023-02-03T01:40:40.613Z,18.4
2023-02-03T01:44:40.546Z,25.77
2023-02-03T01:48:40.929Z,16.63
2023-02-03T01:52:40.491Z,25.57
2023-02-03T01:56:40.049Z,23.53
2023-02-03T02:00:41.214Z,26.97
2023-02-03T02:04:40.496Z,16.23
2023-02-03T02:08:40.881Z,16.57
2023-02-03T02:12:40.446Z,14.43
2023-02-03T02:16:40.712Z,17.9
2023-02-03T02:20:40.610Z,21.4
2023-02-03T02:24:40.484Z,22.7
2023-02-03T02:28:40.686Z,21.4
2023-02-03T02:32:40.627Z,11.9
2023-02-03T02:36:40.664Z,26.83
2023-02-03T02:40:40.538Z,15.47
2023-02-03T02:44:40.477Z,13.5
2023-02-03T02:48:40.818Z,17.9
2023-02-03T02:52:40.672Z,12.87
2023-02-03T02:56:40.750Z,14.9
2023-02-03T03:00:40.407Z,17.5
2023-02-03T03:04:40.520Z,14.73
2023-02-03T03:08:40.544Z,15.57
2023-02-03T03:12:40.616Z,13.93
2023-02-03T03:16:40.288Z,11.93
2023-02-03T03:20:40.489Z,14.93
2023-02-03T03:24:40.640Z,10.97
2023-02-03T03:28:40.680Z,17.87
2023-02-03T03:32:40.666Z,13.6
2023-02-03T03:36:40.144Z,9.4
2023-02-03T03:40:41.219Z,7.5
2023-02-03T03:44:40.607Z,8.13
2023-02-03T03:48:40.496Z,7.77
2023-02-03T03:52:40.499Z,9.97
2023-02-03T03:56:40.540Z,9.7
2023-02-03T04:00:40.568Z,9.73
2023-02-03T04:04:40.576Z,7.17
2023-02-03T04:08:40.586Z,6.73
2023-02-03T04:12:40.133Z,5.37
2023-02-03T04:16:40.733Z,9.93
2023-02-03T04:20:40.866Z,8.73
2023-02-03T04:24:41.103Z,8.8
2023-02-03T04:28:40.762Z,8.8
2023-02-03T04:32:39.473Z,7.43
2023-02-03T04:36:41.204Z,6.83
2023-02-03T04:40:40.604Z,6.23
2023-02-03T04:44:40.235Z,16.47
2023-02-03T04:48:41.216Z,11.4
2023-02-03T04:52:40.775Z,12.67
2023-02-03T04:56:41.236Z,8.83
2023-02-03T05:00:40.678Z,7.57
2023-02-03T05:04:40.793Z,7.93
2023-02-03T05:08:40.528Z,9.7
2023-02-03T05:12:40.488Z,10.63
2023-02-03T05:16:41.255Z,13.2
2023-02-03T05:20:40.590Z,11.63
2023-02-03T05:24:40.898Z,12.9
2023-02-03T05:28:41.043Z,15.27
2023-02-03T05:32:41.172Z,16.83
2023-02-03T05:36:40.570Z,14.9
2023-02-03T05:40:40.242Z,17.57
2023-02-03T05:44:40.491Z,20.13
2023-02-03T05:48:40.606Z,13.1
2023-02-03T05:52:40.549Z,23.87
2023-02-03T05:56:40.500Z,18.63
2023-02-03T06:00:40.542Z,23
2023-02-03T06:04:40.714Z,27.5
2023-02-03T06:08:40.737Z,21.47
2023-02-03T06:12:40.696Z,28.17
2023-02-03T06:16:39.695Z,26.03
2023-02-03T06:20:40.432Z,32.33
2023-02-03T06:24:40.630Z,21.5
2023-02-03T06:28:40.635Z,26.73
2023-02-03T06:32:40.479Z,27.37
2023-02-03T06:36:40.488Z,28.3
2023-02-03T06:40:41.249Z,21.47
2023-02-03T06:44:40.479Z,28.2
2023-02-03T06:48:40.677Z,26.83
2023-02-03T06:52:40.539Z,25.73
2023-02-03T06:56:40.664Z,23.1
2023-02-03T07:00:40.701Z,29.7
2023-02-03T07:04:40.124Z,26.37
2023-02-03T07:08:40.606Z,32.63
2023-02-03T07:12:40.577Z,23.77
2023-02-03T07:16:40.310Z,18.7
2023-02-03T07:20:40.480Z,27.47
2023-02-03T07:24:40.602Z,31.73
2023-02-03T07:28:40.707Z,23
2023-02-03T07:32:40.850Z,35.1
2023-02-03T07:36:40.432Z,16.1
2023-02-03T07:40:39.529Z,21.17
2023-02-03T07:44:40.596Z,21.5
2023-02-03T07:48:40.515Z,20.47
2023-02-03T07:52:40.876Z,34.4
2023-02-03T07:56:40.530Z,15.23
2023-02-03T08:00:40.620Z,25.37
2023-02-03T08:04:40.703Z,27.63
2023-02-03T08:08:40.699Z,26.4
2023-02-03T08:12:40.972Z,29.53
2023-02-03T08:16:40.547Z,27.07
2023-02-03T08:20:40.599Z,31.2
2023-02-03T08:24:40.507Z,24.13
2023-02-03T08:28:40.559Z,18.43
2023-02-03T08:32:39.652Z,12.9
2023-02-03T08:36:40.611Z,25.13
2023-02-03T08:40:39.643Z,26.23
2023-02-03T08:44:40.646Z,16.43
2023-02-03T08:48:40.546Z,19.4
2023-02-03T08:52:40.712Z,16.93
2023-02-03T08:56:40.518Z,20.98
2023-02-03T09:00:41.055Z,11
2023-02-03T09:04:40.572Z,18.87
2023-02-03T09:08:40.669Z,19.23
2023-02-03T09:12:39.967Z,17.77
2023-02-03T09:16:40.621Z,10.53
2023-02-03T09:20:40.673Z,19.2
2023-02-03T09:24:40.854Z,16.63
2023-02-03T09:28:40.729Z,16.33
2023-02-03T09:32:41.158Z,15.48
2023-02-03T09:36:41.955Z,23.58
2023-02-03T09:40:40.593Z,16.23
2023-02-03T09:44:40.484Z,17.5
2023-02-03T09:48:41.042Z,18.5
2023-02-03T09:52:40.506Z,14.82
2023-02-03T09:56:40.859Z,18.97
2023-02-03T10:00:40.604Z,18.73
2023-02-03T10:04:40.796Z,18.3
2023-02-03T10:08:40.539Z,10.13
2023-02-03T10:12:40.611Z,13.53
2023-02-03T10:16:40.304Z,14.2
2023-02-03T10:20:40.563Z,16.1
2023-02-03T10:24:40.316Z,10.2
2023-02-03T10:28:40.623Z,17.62
2023-02-03T10:32:40.788Z,14.57
2023-02-03T10:36:40.459Z,18.27
2023-02-03T10:40:41.278Z,7.6
2023-02-03T10:44:40.970Z,9.32
2023-02-03T10:48:40.643Z,8.4
2023-02-03T10:52:40.494Z,7.78
2023-02-03T10:56:40.311Z,10.6
2023-02-03T11:00:41.079Z,10.57
2023-02-03T11:04:40.616Z,8.65
2023-02-03T11:08:40.481Z,6.32
2023-02-03T11:12:40.623Z,12.87
2023-02-03T11:16:43.412Z,7.4
2023-02-03T11:20:41.278Z,5.97
2023-02-03T11:24:40.890Z,5.12
2023-02-03T11:28:40.990Z,5.4
2023-02-03T11:32:41.237Z,5.25
2023-02-03T11:36:40.570Z,3.33
2023-02-03T11:40:39.377Z,2.53
2023-02-03T11:44:41.036Z,3.43
2023-02-03T11:48:40.699Z,7.65
2023-02-03T11:52:40.683Z,5.6
2023-02-03T11:56:40.468Z,4.37
2023-02-03T12:00:41.317Z,8.25
2023-02-03T12:04:41.207Z,8.07
2023-02-03T12:08:40.551Z,1.97
2023-02-03T12:12:40.461Z,4.5
2023-02-03T12:16:40.621Z,5.93
2023-02-03T12:20:40.566Z,6.17
2023-02-03T12:24:40.684Z,3.7
2023-02-03T12:28:40.510Z,4.8
2023-02-03T12:32:40.429Z,7.2
2023-02-03T12:36:41.167Z,4.47
2023-02-03T12:40:40.596Z,9.73
2023-02-03T12:44:40.598Z,7.47
2023-02-03T12:48:40.507Z,12.2
2023-02-03T12:52:40.523Z,10.85
2023-02-03T12:56:40.705Z,12.37
2023-02-03T13:00:40.755Z,23.87
2023-02-03T13:04:40.579Z,13.38
2023-02-03T13:08:40.652Z,20.33
2023-02-03T13:12:41.209Z,29.85
2023-02-03T13:16:40.477Z,18.25
2023-02-03T13:20:40.563Z,21.98
2023-02-03T13:24:40.343Z,25.23
2023-02-03T13:28:40.536Z,18.2
2023-02-03T13:32:40.526Z,9.75
2023-02-03T13:36:40.502Z,31.12
2023-02-03T13:40:40.236Z,9.65
2023-02-03T13:44:40.576Z,17.77
2023-02-03T13:48:40.484Z,7.05
2023-02-03T13:52:40.820Z,18.23
2023-02-03T13:56:40.421Z,12.05
2023-02-03T14:00:39.711Z,19.8
2023-02-03T14:04:40.836Z,15.55
2023-02-03T14:08:40.520Z,12.15
2023-02-03T14:12:40.490Z,14.75
2023-02-03T14:16:40.641Z,19.9
2023-02-03T14:20:40.599Z,17
2023-02-03T14:24:41.325Z,17.27
2023-02-03T14:28:40.462Z,11.67
2023-02-03T14:32:40.740Z,30.3
2023-02-03T14:36:40.510Z,17.1
2023-02-03T14:40:39.742Z,15.7
2023-02-03T14:44:40.828Z,14.83
2023-02-03T14:48:40.389Z,18.13
2023-02-03T14:52:40.452Z,13.6
2023-02-03T14:56:40.508Z,11.1
2023-02-03T15:00:40.694Z,13.97
2023-02-03T15:04:41.327Z,18.17
2023-02-03T15:08:40.588Z,8.4
2023-02-03T15:12:40.586Z,14.53
2023-02-03T15:16:41.194Z,13.93
2023-02-03T15:20:40.794Z,18.87
2023-02-03T15:24:40.563Z,13.1
2023-02-03T15:28:40.505Z,17.8
2023-02-03T15:32:40.564Z,11.53
2023-02-03T15:36:40.681Z,18.47
2023-02-03T15:40:40.455Z,17.63
2023-02-03T15:44:40.986Z,9.83
2023-02-03T15:48:40.665Z,6.77
2023-02-03T15:52:40.540Z,25.87
2023-02-03T15:56:40.513Z,10.1
2023-02-03T16:00:39.465Z,22.93
2023-02-03T16:04:39.847Z,11.37
2023-02-03T16:08:40.889Z,23.57
2023-02-03T16:12:40.305Z,25.63
2023-02-03T16:16:40.391Z,21.53
2023-02-03T16:20:41.277Z,24.9
2023-02-03T16:24:40.619Z,12.8
2023-02-03T16:28:40.251Z,12.77
2023-02-03T16:32:40.463Z,12.33
2023-02-03T16:36:40.731Z,21.47
2023-02-03T16:40:41.229Z,19.33
2023-02-03T16:44:40.955Z,17.77
2023-02-03T16:48:40.548Z,11.73
2023-02-03T16:52:40.925Z,15.27
2023-02-03T16:56:40.474Z,15.1
2023-02-03T17:00:41.318Z,20.73
2023-02-03T17:04:40.825Z,16.07
2023-02-03T17:08:40.611Z,17.9
2023-02-03T17:12:40.615Z,23.1
2023-02-03T17:16:40.758Z,16.2
2023-02-03T17:20:40.451Z,12.1
2023-02-03T17:24:40.761Z,16.47
2023-02-03T17:28:40.513Z,18.65
2023-02-03T17:32:40.646Z,18.67
2023-02-03T17:36:40.449Z,16.33
2023-02-03T17:53:45.789Z,6.97
2023-02-03T17:56:40.689Z,17.93
2023-02-03T18:00:40.650Z,11
2023-02-03T18:04:40.522Z,16.92
2023-02-03T18:08:40.601Z,26.23
2023-02-03T18:12:40.677Z,15.03
2023-02-03T18:16:40.668Z,13.37
2023-02-03T18:20:40.438Z,11.7
2023-02-03T18:24:40.514Z,21.1
2023-02-03T18:28:40.245Z,12.53
2023-02-03T18:32:41.156Z,17.93
2023-02-03T18:36:41.243Z,9.87
2023-02-03T18:40:40.367Z,13.37
2023-02-03T18:44:40.822Z,15.8
2023-02-03T18:48:40.507Z,13.45
2023-02-03T18:52:40.552Z,18.37
2023-02-03T18:56:39.338Z,10.07
2023-02-03T19:00:41.127Z,10.23
2023-02-03T19:04:40.728Z,17.33
2023-02-03T19:08:40.774Z,13.1
2023-02-03T19:12:40.867Z,21.6
2023-02-03T19:16:40.443Z,24.83
2023-02-03T19:20:40.373Z,27.73
2023-02-03T19:24:40.397Z,17.7
2023-02-03T19:28:41.083Z,12.93
2023-02-03T19:32:40.684Z,14.13
2023-02-03T19:36:40.603Z,9.5
2023-02-03T19:40:40.894Z,11.43
2023-02-03T19:44:40.764Z,12.17
2023-02-03T19:48:40.610Z,19.27
2023-02-03T19:52:40.137Z,18.37
2023-02-03T19:56:40.874Z,11.23
2023-02-03T20:00:40.669Z,15.3
2023-02-03T20:04:40.586Z,18.7
2023-02-03T20:08:40.475Z,28.63
2023-02-03T20:12:41.226Z,16.77
2023-02-03T20:16:40.505Z,16.17
2023-02-03T20:20:40.498Z,12.87
2023-02-03T20:24:40.449Z,9.97
2023-02-03T20:28:40.581Z,8.97
2023-02-03T20:32:41.077Z,10.03
2023-02-03T20:36:40.496Z,7.2
2023-02-03T20:40:40.542Z,10.97
2023-02-03T20:44:42.301Z,16.6
2023-02-03T20:48:40.780Z,14.97
2023-02-03T20:52:40.516Z,9.73
2023-02-03T20:56:40.672Z,6.53
2023-02-03T21:00:40.294Z,9.97
2023-02-03T21:04:41.159Z,13.53
2023-02-03T21:08:40.487Z,20.3
2023-02-03T21:12:39.355Z,13.3
2023-02-03T21:16:40.669Z,14.17
2023-02-03T21:20:40.675Z,12
2023-02-03T21:24:40.679Z,19.13
2023-02-03T21:28:40.581Z,12.6
2023-02-03T21:32:40.572Z,11.53
2023-02-03T21:36:40.444Z,6.63
2023-02-03T21:40:40.481Z,10.53
2023-02-03T21:44:41.020Z,6.67
2023-02-03T21:48:40.546Z,22.2
2023-02-03T21:52:40.617Z,17.73
2023-02-03T21:56:40.472Z,11.4
2023-02-03T22:00:40.478Z,6.03
2023-02-03T22:04:40.268Z,12.43
2023-02-03T22:08:41.264Z,7.23
2023-02-03T22:12:40.846Z,13.1
2023-02-03T22:16:40.574Z,7.33
2023-02-03T22:20:40.488Z,6.3
2023-02-03T22:24:40.516Z,5.57
2023-02-03T22:28:40.578Z,15.33
2023-02-03T22:32:41.237Z,9.8
2023-02-03T22:36:40.470Z,4.07
2023-02-03T22:40:40.591Z,1.5
2023-02-03T22:44:40.555Z,10.1
2023-02-03T22:48:40.479Z,4.63
2023-02-03T22:52:41.382Z,0.2
2023-02-03T22:56:40.486Z,1.27
2023-02-03T23:00:39.982Z,4.2
2023-02-03T23:04:39.481Z,1.4
2023-02-03T23:08:40.781Z,3.1
2023-02-03T23:12:40.654Z,0.6
2023-02-03T23:16:40.463Z,1.5
2023-02-03T23:20:40.492Z,0.1
2023-02-03T23:24:40.716Z,0.47
2023-02-03T23:28:40.590Z,1.43
2023-02-03T23:32:40.756Z,1.7
2023-02-03T23:36:40.996Z,2.4
2023-02-03T23:40:40.487Z,1.43
2023-02-03T23:44:39.708Z,0.4
2023-02-03T23:48:40.858Z,0.23
2023-02-03T23:52:40.455Z,0.8
2023-02-03T23:56:40.372Z,0.6
